createdAt,value
2022-08-25T00:06:28.150Z,95.23
2022-08-25T00:16:31.947Z,95.72
2022-08-25T00:26:34.500Z,96.02
2022-08-25T00:36:37.892Z,96.27
2022-08-25T00:46:45.063Z,96.91
2022-08-25T00:56:49.492Z,97.36
2022-08-25T01:06:52.767Z,98.10
2022-08-25T01:16:55.865Z,98.60
2022-08-25T01:26:58.528Z,98.86
2022-08-25T01:37:01.005Z,99.43
2022-08-25T01:47:04.979Z,99.70
2022-08-25T01:57:07.492Z,100.00
2022-08-25T02:07:10.029Z,100.00
2022-08-25T02:17:12.431Z,100.00
2022-08-25T02:27:15.009Z,100.00
2022-08-25T02:37:17.281Z,100.00
2022-08-25T02:47:19.827Z,100.00
2022-08-25T02:57:29.630Z,100.00
2022-08-25T03:07:31.925Z,100.00
2022-08-25T03:17:37.970Z,100.00
2022-08-25T03:27:40.889Z,100.00
2022-08-25T03:37:43.189Z,100.00
2022-08-25T03:47:51.610Z,100.00
2022-08-25T03:57:57.008Z,100.00
2022-08-25T04:08:02.346Z,100.00
2022-08-25T04:18:06.106Z,100.00
2022-08-25T04:28:10.561Z,100.00
2022-08-25T04:38:14.029Z,100.00
2022-08-25T04:48:18.678Z,100.00
2022-08-25T04:58:21.124Z,100.00
2022-08-25T05:08:24.633Z,100.00
2022-08-25T05:18:30.092Z,100.00
2022-08-25T05:28:33.005Z,100.00
2022-08-25T05:38:35.661Z,100.00
2022-08-25T05:48:42.531Z,100.00
2022-08-25T05:58:48.207Z,100.00
2022-08-25T06:08:52.087Z,100.00
2022-08-25T06:18:56.123Z,100.00
2022-08-25T06:28:58.746Z,100.00
2022-08-25T06:39:02.282Z,100.00
2022-08-25T06:49:07.232Z,98.74
2022-08-25T06:59:12.877Z,96.86
2022-08-25T07:09:39.030Z,94.35
2022-08-25T07:19:43.107Z,91.31
2022-08-25T07:29:59.027Z,89.47
2022-08-25T07:40:30.477Z,84.13
2022-08-25T08:01:30.331Z,75.88
2022-08-25T08:11:53.833Z,73.60
2022-08-25T08:22:11.507Z,71.26
2022-08-25T08:32:36.756Z,68.41
2022-08-25T08:43:47.043Z,67.11
2022-08-25T09:17:03.158Z,63.80
2022-08-25T09:28:04.308Z,62.76
2022-08-25T09:38:12.838Z,61.49
2022-08-25T09:48:34.657Z,56.53
2022-08-25T09:58:43.223Z,58.23
2022-08-25T10:08:46.884Z,57.56
2022-08-25T10:19:27.456Z,57.97
2022-08-25T10:29:47.069Z,56.65
2022-08-25T10:39:59.858Z,48.33
2022-08-25T10:50:13.790Z,49.83
2022-08-25T11:00:22.749Z,49.17
2022-08-25T11:10:38.471Z,46.20
2022-08-25T11:20:52.388Z,47.75
2022-08-25T11:30:58.673Z,48.81
2022-08-25T11:41:26.036Z,50.65
2022-08-25T11:51:36.377Z,48.38
2022-08-25T12:01:44.065Z,44.95
2022-08-25T12:11:59.623Z,44.40
2022-08-25T12:22:04.176Z,45.79
2022-08-25T12:32:20.836Z,48.24
2022-08-25T12:42:49.912Z,44.67
2022-08-25T12:52:56.831Z,41.88
2022-08-25T13:03:29.246Z,40.43
2022-08-25T13:14:06.729Z,41.82
2022-08-25T13:24:22.672Z,36.02
2022-08-25T13:34:35.073Z,36.95
2022-08-25T13:44:52.407Z,36.59
2022-08-25T13:55:05.629Z,33.79
2022-08-25T14:05:13.832Z,32.74
2022-08-25T14:15:20.681Z,40.75
2022-08-25T14:25:28.400Z,37.11
2022-08-25T14:35:35.483Z,33.75
2022-08-25T14:45:42.981Z,35.61
2022-08-25T14:55:58.726Z,36.13
2022-08-25T15:06:02.248Z,36.06
2022-08-25T15:16:07.753Z,40.51
2022-08-25T15:26:14.430Z,42.06
2022-08-25T15:36:20.616Z,41.28
2022-08-25T15:46:25.340Z,48.20
2022-08-25T15:56:29.696Z,48.72
2022-08-25T16:06:32.725Z,51.63
2022-08-25T16:16:35.440Z,52.62
2022-08-25T16:26:48.143Z,55.53
2022-08-25T16:36:51.864Z,58.42
2022-08-25T16:46:56.067Z,59.20
2022-08-25T16:56:59.013Z,60.73
2022-08-25T17:07:02.483Z,60.77
2022-08-25T17:17:07.159Z,62.80
2022-08-25T17:27:11.020Z,63.85
2022-08-25T17:37:13.637Z,64.87
2022-08-25T17:47:17.096Z,65.55
2022-08-25T17:57:21.394Z,67.65
2022-08-25T18:07:24.443Z,68.95
2022-08-25T18:17:27.859Z,72.03
2022-08-25T18:27:32.399Z,74.90
2022-08-25T18:37:53.475Z,77.66
2022-08-25T18:48:00.154Z,78.65
2022-08-25T18:58:07.656Z,79.75
2022-08-25T19:08:14.152Z,80.73
2022-08-25T19:18:29.058Z,81.53
2022-08-25T19:28:33.509Z,82.31
2022-08-25T19:38:38.173Z,84.29
2022-08-25T19:48:42.398Z,85.04
2022-08-25T19:58:47.904Z,85.64
2022-08-25T20:08:59.293Z,86.34
2022-08-25T20:19:07.306Z,87.33
2022-08-25T20:29:13.439Z,89.45
2022-08-25T20:39:18.150Z,89.62
2022-08-25T20:49:22.044Z,89.93
2022-08-25T20:59:27.731Z,91.42
2022-08-25T21:09:30.253Z,92.75
2022-08-25T21:19:33.613Z,92.88
2022-08-25T21:29:36.178Z,93.57
2022-08-25T21:39:38.880Z,94.31
2022-08-25T21:49:44.124Z,95.03
2022-08-25T21:59:46.797Z,95.44
2022-08-25T22:09:49.372Z,95.65
2022-08-25T22:19:53.760Z,95.21
2022-08-25T22:29:56.571Z,95.81
2022-08-25T22:39:59.002Z,96.37
2022-08-25T22:50:01.583Z,96.69
2022-08-25T23:00:07.818Z,97.28
2022-08-25T23:10:12.831Z,97.74
2022-08-25T23:20:33.897Z,98.52
2022-08-25T23:30:36.340Z,98.79
2022-08-25T23:40:43.821Z,99.22
2022-08-25T23:50:54.168Z,100.00
